createdAt,value
2019-05-22T00:02:24.549Z,2.77
2019-05-22T00:05:27.016Z,2.63
2019-05-22T00:08:26.116Z,2.47
2019-05-22T00:11:25.433Z,2.17
2019-05-22T00:14:25.801Z,2.13
2019-05-22T00:17:29.142Z,1.80
2019-05-22T00:20:29.428Z,2.70
2019-05-22T00:23:28.820Z,2.80
2019-05-22T00:26:28.876Z,2.30
2019-05-22T00:29:28.146Z,3.20
2019-05-22T00:32:27.395Z,1.73
2019-05-22T00:35:27.019Z,2.67
2019-05-22T00:38:26.791Z,2.60
2019-05-22T00:41:27.166Z,2.20
2019-05-22T00:44:27.786Z,2.40
2019-05-22T00:47:28.752Z,2.10
2019-05-22T00:50:33.266Z,2.00
2019-05-22T00:53:42.160Z,2.00
2019-05-22T00:56:54.342Z,2.20
2019-05-22T00:59:55.739Z,2.07
2019-05-22T01:02:56.002Z,1.90
2019-05-22T01:05:56.197Z,1.57
2019-05-22T01:08:56.822Z,1.50
2019-05-22T01:11:56.509Z,1.13
2019-05-22T01:14:57.340Z,2.00
2019-05-22T01:17:56.463Z,1.80
2019-05-22T01:20:58.793Z,1.83
2019-05-22T01:23:59.819Z,1.57
2019-05-22T01:27:00.024Z,2.30
2019-05-22T01:29:59.868Z,1.93
2019-05-22T01:33:01.813Z,1.93
2019-05-22T01:36:16.294Z,2.43
2019-05-22T01:39:44.540Z,2.30
2019-05-22T01:42:45.205Z,2.70
2019-05-22T01:45:52.379Z,2.37
2019-05-22T01:48:54.378Z,3.07
2019-05-22T01:51:54.231Z,3.20
2019-05-22T01:54:55.450Z,3.80
2019-05-22T01:57:54.160Z,3.47
2019-05-22T02:00:54.030Z,3.70
2019-05-22T02:03:54.605Z,3.67
2019-05-22T02:06:54.978Z,3.87
2019-05-22T02:09:54.514Z,3.60
2019-05-22T02:12:57.196Z,3.47
2019-05-22T02:15:56.874Z,3.70
2019-05-22T02:18:56.785Z,4.10
2019-05-22T02:21:56.466Z,4.50
2019-05-22T02:24:55.559Z,5.43
2019-05-22T02:27:54.403Z,4.60
2019-05-22T02:30:54.787Z,4.80
2019-05-22T02:34:04.879Z,4.37
2019-05-22T02:37:05.328Z,5.60
2019-05-22T02:40:04.926Z,6.57
2019-05-22T02:43:04.082Z,6.67
2019-05-22T02:46:04.653Z,6.27
2019-05-22T02:49:05.471Z,5.73
2019-05-22T02:52:06.296Z,5.83
2019-05-22T02:55:05.566Z,6.50
2019-05-22T02:58:04.324Z,6.00
2019-05-22T03:01:04.883Z,5.43
2019-05-22T03:04:05.441Z,5.17
2019-05-22T03:07:06.522Z,5.30
2019-05-22T03:10:07.991Z,5.40
2019-05-22T03:13:08.539Z,4.63
2019-05-22T03:16:08.117Z,5.30
2019-05-22T03:19:09.428Z,5.70
2019-05-22T03:22:28.968Z,4.27
2019-05-22T03:25:30.613Z,3.90
2019-05-22T03:28:30.029Z,4.43
2019-05-22T03:31:29.135Z,6.33
2019-05-22T03:34:28.015Z,6.27
2019-05-22T03:37:26.998Z,6.70
2019-05-22T03:40:28.716Z,6.93
2019-05-22T03:43:29.680Z,7.10
2019-05-22T03:46:33.433Z,7.27
2019-05-22T03:49:32.830Z,9.03
2019-05-22T03:52:31.888Z,8.47
2019-05-22T03:55:30.887Z,8.90
2019-05-22T03:58:31.193Z,9.23
2019-05-22T04:01:31.916Z,10.27
2019-05-22T04:04:36.821Z,10.13
2019-05-22T04:07:36.272Z,9.00
2019-05-22T04:10:43.084Z,10.67
2019-05-22T04:13:42.139Z,9.80
2019-05-22T04:16:41.537Z,11.70
2019-05-22T04:19:49.555Z,12.00
2019-05-22T04:22:41.791Z,12.10
2019-05-22T04:25:40.791Z,15.90
2019-05-22T04:28:48.278Z,15.43
2019-05-22T04:31:51.686Z,14.60
2019-05-22T04:34:51.791Z,17.37
2019-05-22T04:37:50.548Z,17.87
2019-05-22T04:40:53.352Z,18.53
2019-05-22T04:43:52.554Z,21.33
2019-05-22T04:46:52.593Z,22.90
2019-05-22T04:50:06.346Z,22.33
2019-05-22T04:52:54.173Z,14.57
2019-05-22T04:55:53.898Z,25.43
2019-05-22T04:58:53.295Z,27.10
2019-05-22T05:01:52.186Z,30.87
2019-05-22T05:04:51.554Z,27.60
2019-05-22T05:07:51.997Z,32.20
2019-05-22T05:10:52.812Z,25.97
2019-05-22T05:13:51.891Z,24.27
2019-05-22T05:16:50.614Z,25.27
2019-05-22T05:19:49.431Z,29.27
2019-05-22T05:22:49.435Z,25.47
2019-05-22T05:25:48.349Z,22.83
2019-05-22T05:28:47.139Z,18.10
2019-05-22T05:31:46.675Z,20.53
2019-05-22T05:34:57.636Z,24.47
2019-05-22T05:37:56.448Z,25.60
2019-05-22T05:40:55.313Z,22.30
2019-05-22T05:43:54.681Z,21.80
2019-05-22T05:46:53.592Z,25.37
2019-05-22T05:49:52.666Z,27.10
2019-05-22T05:52:52.070Z,20.90
2019-05-22T05:56:14.607Z,28.27
2019-05-22T05:59:15.791Z,31.27
2019-05-22T06:02:14.803Z,33.10
2019-05-22T06:05:13.691Z,30.13
2019-05-22T06:08:13.134Z,33.90
2019-05-22T06:11:49.029Z,31.60
2019-05-22T06:14:48.977Z,32.53
2019-05-22T06:18:31.930Z,31.70
2019-05-22T06:21:32.160Z,27.37
2019-05-22T06:24:59.732Z,17.77
2019-05-22T06:27:59.702Z,28.53
2019-05-22T06:31:00.387Z,28.03
2019-05-22T06:33:59.260Z,27.63
2019-05-22T06:37:02.355Z,16.70
2019-05-22T06:40:01.370Z,21.50
2019-05-22T06:43:37.980Z,24.73
2019-05-22T06:46:44.974Z,19.43
2019-05-22T06:49:45.279Z,20.10
2019-05-22T06:52:44.077Z,22.20
2019-05-22T06:55:43.211Z,22.37
2019-05-22T06:58:42.298Z,22.47
2019-05-22T07:01:41.552Z,23.67
2019-05-22T07:04:41.081Z,21.53
2019-05-22T07:07:40.079Z,16.47
2019-05-22T07:13:43.484Z,21.63
2019-05-22T07:16:43.082Z,19.13
2019-05-22T07:19:44.076Z,18.73
2019-05-22T07:22:44.134Z,15.80
2019-05-22T07:25:44.344Z,16.30
2019-05-22T07:28:44.185Z,17.13
2019-05-22T07:31:43.691Z,18.07
2019-05-22T07:34:42.643Z,16.00
2019-05-22T07:37:43.411Z,12.20
2019-05-22T07:40:42.562Z,12.07
2019-05-22T07:43:42.277Z,17.50
2019-05-22T07:46:41.167Z,16.60
2019-05-22T07:49:40.213Z,18.60
2019-05-22T07:52:40.463Z,17.60
2019-05-22T07:55:40.249Z,19.90
2019-05-22T07:58:39.052Z,21.10
2019-05-22T08:01:37.854Z,17.77
2019-05-22T08:04:36.986Z,18.40
2019-05-22T08:07:37.719Z,14.17
2019-05-22T08:10:36.998Z,18.50
2019-05-22T08:13:36.000Z,22.13
2019-05-22T08:16:35.243Z,22.83
2019-05-22T08:19:33.957Z,18.67
2019-05-22T08:22:32.687Z,18.13
2019-05-22T08:25:31.660Z,21.60
2019-05-22T08:28:31.762Z,15.70
2019-05-22T08:31:30.792Z,20.50
2019-05-22T08:34:30.112Z,18.63
2019-05-22T08:37:30.048Z,14.93
2019-05-22T08:40:28.834Z,15.63
2019-05-22T08:43:27.752Z,15.50
2019-05-22T08:46:26.768Z,17.27
2019-05-22T08:49:25.806Z,14.37
2019-05-22T08:52:25.166Z,12.30
2019-05-22T08:55:24.252Z,11.60
2019-05-22T08:58:23.063Z,14.30
2019-05-22T09:01:22.734Z,15.60
2019-05-22T09:04:21.592Z,14.50
2019-05-22T09:07:20.985Z,15.87
2019-05-22T09:10:19.787Z,9.30
2019-05-22T09:13:19.149Z,16.37
2019-05-22T09:16:18.266Z,13.80
2019-05-22T09:19:17.373Z,12.30
2019-05-22T09:22:16.672Z,13.97
2019-05-22T09:25:15.999Z,14.30
2019-05-22T09:28:15.281Z,14.33
2019-05-22T09:31:14.367Z,13.80
2019-05-22T09:34:13.102Z,12.93
2019-05-22T09:37:11.901Z,13.27
2019-05-22T09:40:11.324Z,12.83
2019-05-22T09:43:10.067Z,12.23
2019-05-22T09:46:09.161Z,9.87
2019-05-22T09:49:08.860Z,11.63
2019-05-22T09:52:09.434Z,14.37
2019-05-22T09:55:08.904Z,14.23
2019-05-22T09:58:08.315Z,9.23
2019-05-22T10:01:11.696Z,14.47
2019-05-22T10:04:09.757Z,13.73
2019-05-22T10:07:08.796Z,14.20
2019-05-22T10:10:08.491Z,14.10
2019-05-22T10:13:07.286Z,14.47
2019-05-22T10:16:06.649Z,13.70
2019-05-22T10:19:05.941Z,13.27
2019-05-22T10:22:05.623Z,14.07
2019-05-22T10:25:15.687Z,14.20
2019-05-22T10:28:06.643Z,12.57
2019-05-22T10:31:06.971Z,9.73
2019-05-22T10:34:06.302Z,12.80
2019-05-22T10:37:07.031Z,12.37
2019-05-22T10:40:05.859Z,14.57
2019-05-22T10:43:05.235Z,12.93
2019-05-22T10:46:04.231Z,13.93
2019-05-22T10:49:03.121Z,13.90
2019-05-22T10:52:02.145Z,15.40
2019-05-22T10:55:01.325Z,14.73
2019-05-22T10:58:00.297Z,15.40
2019-05-22T11:00:59.558Z,15.43
2019-05-22T11:03:58.370Z,15.77
2019-05-22T11:06:57.925Z,15.40
2019-05-22T11:09:56.825Z,15.70
2019-05-22T11:12:55.556Z,15.80
2019-05-22T11:15:54.991Z,18.37
2019-05-22T11:18:54.456Z,14.80
2019-05-22T11:21:56.954Z,14.37
2019-05-22T11:24:54.849Z,14.50
2019-05-22T11:27:54.116Z,13.57
2019-05-22T11:30:53.211Z,14.00
2019-05-22T11:33:52.030Z,15.60
2019-05-22T11:36:51.021Z,15.60
2019-05-22T11:39:50.233Z,16.20
2019-05-22T11:42:51.466Z,15.17
2019-05-22T11:45:50.616Z,15.43
2019-05-22T11:48:49.655Z,16.57
2019-05-22T11:51:49.051Z,16.10
2019-05-22T11:54:48.152Z,14.87
2019-05-22T11:57:47.883Z,16.43
2019-05-22T12:00:47.181Z,14.07
2019-05-22T12:03:46.166Z,15.60
2019-05-22T12:06:45.234Z,14.23
2019-05-22T12:09:44.645Z,17.07
2019-05-22T12:12:44.604Z,16.20
2019-05-22T12:15:43.697Z,18.77
2019-05-22T12:18:42.782Z,20.00
2019-05-22T12:21:41.528Z,21.40
2019-05-22T12:24:40.358Z,19.23
2019-05-22T12:27:39.179Z,19.33
2019-05-22T12:30:37.976Z,19.50
2019-05-22T12:33:37.350Z,19.20
2019-05-22T12:36:37.607Z,19.90
2019-05-22T12:39:37.014Z,20.63
2019-05-22T12:42:35.805Z,20.83
2019-05-22T12:45:34.708Z,20.73
2019-05-22T12:48:34.062Z,25.47
2019-05-22T12:51:33.067Z,23.47
2019-05-22T12:54:46.180Z,26.67
2019-05-22T12:57:32.801Z,25.47
2019-05-22T13:00:32.696Z,28.00
2019-05-22T13:03:32.889Z,26.30
2019-05-22T13:06:32.010Z,26.57
2019-05-22T13:09:30.810Z,25.50
2019-05-22T13:12:29.872Z,25.67
2019-05-22T13:15:28.687Z,24.83
2019-05-22T13:18:27.967Z,25.23
2019-05-22T13:21:32.625Z,26.07
2019-05-22T13:24:32.208Z,24.97
2019-05-22T13:27:33.422Z,24.20
2019-05-22T13:30:35.003Z,22.33
2019-05-22T13:33:37.564Z,23.73
2019-05-22T13:36:37.137Z,21.77
2019-05-22T13:39:35.955Z,21.90
2019-05-22T13:42:34.844Z,22.20
2019-05-22T13:45:34.140Z,22.47
2019-05-22T13:48:33.375Z,22.80
2019-05-22T13:51:32.407Z,23.00
2019-05-22T13:54:31.757Z,24.20
2019-05-22T13:57:30.842Z,24.87
2019-05-22T14:00:29.799Z,23.80
2019-05-22T14:03:29.013Z,24.43
2019-05-22T14:06:28.198Z,23.10
2019-05-22T14:09:28.185Z,22.70
2019-05-22T14:12:27.527Z,21.47
2019-05-22T14:15:26.950Z,22.20
2019-05-22T14:18:26.030Z,21.03
2019-05-22T14:21:24.942Z,21.07
2019-05-22T14:24:23.728Z,23.43
2019-05-22T14:27:22.890Z,23.50
2019-05-22T14:30:23.305Z,26.00
2019-05-22T14:33:22.090Z,22.73
2019-05-22T14:36:21.713Z,23.77
2019-05-22T14:39:22.821Z,24.60
2019-05-22T14:42:22.412Z,26.87
2019-05-22T14:45:21.303Z,27.23
2019-05-22T14:48:20.770Z,26.63
2019-05-22T14:51:21.486Z,25.90
2019-05-22T14:54:20.780Z,24.53
2019-05-22T14:57:19.511Z,25.87
2019-05-22T15:00:20.663Z,26.20
2019-05-22T15:03:20.705Z,26.90
2019-05-22T15:06:20.039Z,26.13
2019-05-22T15:09:19.480Z,26.03
2019-05-22T15:12:18.330Z,27.00
2019-05-22T15:15:19.428Z,24.37
2019-05-22T15:18:18.553Z,25.73
2019-05-22T15:21:18.205Z,25.40
2019-05-22T15:24:17.773Z,25.73
2019-05-22T15:27:16.513Z,24.73
2019-05-22T15:30:15.857Z,27.50
2019-05-22T15:33:14.578Z,29.83
2019-05-22T15:36:15.814Z,26.90
2019-05-22T15:39:15.376Z,27.10
2019-05-22T15:42:37.256Z,26.37
2019-05-22T15:45:36.331Z,24.90
2019-05-22T15:48:36.634Z,23.97
2019-05-22T15:51:36.928Z,22.83
2019-05-22T15:54:36.422Z,23.27
2019-05-22T15:57:36.038Z,24.00
2019-05-22T16:00:37.838Z,23.07
2019-05-22T16:03:37.288Z,24.40
2019-05-22T16:06:36.923Z,22.50
2019-05-22T16:09:36.048Z,22.70
2019-05-22T16:12:34.939Z,22.07
2019-05-22T16:15:34.634Z,22.43
2019-05-22T16:18:35.439Z,22.87
2019-05-22T16:21:36.091Z,23.40
2019-05-22T16:24:37.075Z,23.40
2019-05-22T16:27:38.228Z,24.47
2019-05-22T16:30:37.020Z,23.27
2019-05-22T16:33:37.949Z,23.37
2019-05-22T16:36:36.782Z,23.37
2019-05-22T16:39:37.328Z,22.17
2019-05-22T16:42:36.375Z,24.10
2019-05-22T16:45:35.935Z,22.03
2019-05-22T16:48:36.512Z,22.07
2019-05-22T16:51:35.718Z,23.33
2019-05-22T16:54:35.493Z,28.00
2019-05-22T16:57:34.216Z,37.60
2019-05-22T17:00:33.867Z,29.43
2019-05-22T17:03:33.523Z,31.77
2019-05-22T17:06:34.614Z,22.37
2019-05-22T17:09:33.777Z,23.10
2019-05-22T17:12:32.578Z,21.20
2019-05-22T17:15:31.568Z,21.40
2019-05-22T17:18:45.821Z,23.87
2019-05-22T17:21:31.894Z,22.30
2019-05-22T17:24:34.022Z,20.67
2019-05-22T17:27:31.750Z,21.43
2019-05-22T17:30:32.333Z,21.23
2019-05-22T17:33:32.312Z,22.07
2019-05-22T17:36:31.780Z,20.80
2019-05-22T17:39:33.269Z,20.20
2019-05-22T17:42:32.154Z,20.67
2019-05-22T17:45:31.880Z,22.30
2019-05-22T17:48:32.448Z,21.00
2019-05-22T17:51:32.235Z,22.37
2019-05-22T17:54:31.686Z,22.20
2019-05-22T17:57:31.456Z,23.43
2019-05-22T18:00:34.808Z,22.60
2019-05-22T18:03:33.539Z,24.80
2019-05-22T18:06:32.713Z,23.67
2019-05-22T18:09:31.810Z,22.50
2019-05-22T18:12:31.915Z,21.60
2019-05-22T18:15:30.717Z,22.23
2019-05-22T18:18:29.798Z,20.90
2019-05-22T18:21:28.594Z,20.73
2019-05-22T18:24:27.428Z,21.70
2019-05-22T18:27:26.451Z,23.43
2019-05-22T18:30:27.335Z,18.93
2019-05-22T18:33:26.132Z,22.07
2019-05-22T18:36:24.927Z,21.33
2019-05-22T18:39:24.090Z,21.40
2019-05-22T18:42:23.582Z,20.80
2019-05-22T18:45:23.052Z,19.23
2019-05-22T18:48:22.170Z,20.00
2019-05-22T18:51:21.321Z,19.73
2019-05-22T18:54:20.414Z,19.50
2019-05-22T18:57:19.505Z,19.30
2019-05-22T19:00:22.334Z,20.53
2019-05-22T19:03:21.546Z,23.40
2019-05-22T19:06:30.360Z,29.80
2019-05-22T19:09:22.389Z,18.67
2019-05-22T19:12:21.177Z,18.97
2019-05-22T19:15:21.027Z,18.47
2019-05-22T19:18:19.780Z,21.50
2019-05-22T19:21:18.536Z,19.97
2019-05-22T19:24:17.395Z,15.90
2019-05-22T19:27:16.385Z,18.63
2019-05-22T19:30:17.277Z,19.47
2019-05-22T19:33:16.251Z,19.93
2019-05-22T19:36:15.083Z,25.23
2019-05-22T19:39:13.952Z,19.17
2019-05-22T19:42:12.742Z,20.50
2019-05-22T19:45:12.071Z,20.90
2019-05-22T19:48:11.482Z,19.10
2019-05-22T19:51:10.646Z,19.00
2019-05-22T19:54:09.728Z,17.03
2019-05-22T19:57:09.866Z,18.30
2019-05-22T20:00:09.000Z,17.17
2019-05-22T20:03:08.673Z,17.20
2019-05-22T20:06:07.470Z,17.80
2019-05-22T20:09:09.256Z,17.93
2019-05-22T20:12:08.727Z,18.87
2019-05-22T20:15:08.339Z,21.07
2019-05-22T20:18:08.006Z,18.57
2019-05-22T20:21:06.817Z,17.47
2019-05-22T20:24:06.580Z,18.87
2019-05-22T20:27:09.629Z,18.90
2019-05-22T20:30:07.958Z,17.13
2019-05-22T20:33:07.231Z,17.17
2019-05-22T20:36:06.576Z,17.60
2019-05-22T20:39:09.253Z,17.73
2019-05-22T20:42:09.114Z,19.60
2019-05-22T20:45:08.107Z,17.47
2019-05-22T20:48:11.902Z,18.27
2019-05-22T20:51:13.786Z,19.13
2019-05-22T20:54:15.065Z,18.83
2019-05-22T20:57:19.622Z,16.73
2019-05-22T21:00:18.229Z,20.07
2019-05-22T21:03:18.056Z,20.33
2019-05-22T21:06:18.381Z,20.97
2019-05-22T21:09:17.390Z,21.43
2019-05-22T21:12:17.063Z,21.77
2019-05-22T21:15:16.467Z,20.70
2019-05-22T21:18:16.604Z,20.40
2019-05-22T21:21:16.265Z,21.33
2019-05-22T21:24:15.273Z,20.40
2019-05-22T21:27:15.124Z,21.60
2019-05-22T21:30:15.551Z,23.33
2019-05-22T21:33:14.721Z,20.70
2019-05-22T21:36:16.203Z,18.80
2019-05-22T21:39:16.783Z,19.23
2019-05-22T21:42:15.972Z,20.47
2019-05-22T21:45:16.391Z,19.37
2019-05-22T21:48:15.884Z,19.37
2019-05-22T21:51:15.676Z,19.80
2019-05-22T21:54:14.714Z,19.03
2019-05-22T21:57:14.108Z,19.10
2019-05-22T22:00:19.614Z,18.87
2019-05-22T22:03:20.509Z,19.67
2019-05-22T22:06:20.603Z,18.17
2019-05-22T22:09:21.708Z,18.73
2019-05-22T22:12:23.142Z,19.77
2019-05-22T22:15:23.173Z,19.27
2019-05-22T22:18:24.818Z,19.63
2019-05-22T22:21:24.754Z,18.23
2019-05-22T22:24:23.549Z,17.37
2019-05-22T22:27:22.872Z,17.30
2019-05-22T22:30:31.550Z,16.90
2019-05-22T22:33:32.998Z,17.97
2019-05-22T22:36:32.698Z,17.73
2019-05-22T22:39:32.484Z,17.00
2019-05-22T22:42:36.852Z,17.10
2019-05-22T22:45:43.618Z,18.57
2019-05-22T22:48:43.037Z,18.80
2019-05-22T22:51:43.139Z,18.60
2019-05-22T22:54:43.361Z,18.77
2019-05-22T22:57:42.343Z,18.77
2019-05-22T23:00:43.509Z,17.97
2019-05-22T23:03:42.594Z,21.00
2019-05-22T23:06:43.068Z,22.80
2019-05-22T23:09:44.152Z,26.20
2019-05-22T23:12:43.240Z,26.10
2019-05-22T23:15:42.027Z,19.53
2019-05-22T23:19:38.771Z,20.53
2019-05-22T23:22:36.203Z,19.57
2019-05-22T23:25:35.008Z,18.27
2019-05-22T23:28:35.128Z,19.27
2019-05-22T23:31:35.501Z,21.10
2019-05-22T23:34:35.288Z,19.80
2019-05-22T23:37:34.163Z,21.73
2019-05-22T23:40:35.305Z,22.47
2019-05-22T23:43:34.801Z,21.47
2019-05-22T23:46:34.162Z,20.67
2019-05-22T23:49:33.436Z,21.10
2019-05-22T23:52:33.348Z,17.97
2019-05-22T23:55:32.370Z,24.73
2019-05-22T23:58:32.652Z,24.13
